Time;durP1;ratioP1;P1;durP2;ratioP2;P2;SDS_P1;SDS_P2;PMS_P1;PMS_P2;Temp;Humidity;BMP_temperature;BMP_pressure;BME280_temperature;BME280_humidity;BME280_pressure;Samples;Min_cycle;Max_cycle;Signal;HPM_P1;HPM_P2
2022/04/15 00:00:20;;;;;;;11.93;8.73;;;;;;;9.37;88.53;101629.97;4935036;28;20079;-87
2022/04/15 00:02:48;;;;;;;12.13;8.57;;;;;;;9.35;88.63;101626.47;4938621;29;20061;-86
2022/04/15 00:07:59;;;;;;;13.52;9.55;;;;;;;9.33;88.68;101626.44;4959374;29;20087;-87
2022/04/15 00:10:28;;;;;;;18.90;10.55;;;;;;;9.33;88.70;101633.41;4948671;29;20047;-90
2022/04/15 00:12:58;;;;;;;17.42;12.27;;;;;;;9.35;88.58;101634.31;4958818;28;20041;-88
2022/04/15 00:15:25;;;;;;;19.98;12.30;;;;;;;9.30;89.11;101629.03;4960777;29;20062;-87
2022/04/15 00:17:53;;;;;;;21.67;13.07;;;;;;;9.29;89.28;101632.47;4958774;29;20051;-89
2022/04/15 00:20:19;;;;;;;18.77;11.77;;;;;;;9.29;89.07;101629.88;4956938;29;20074;-91
2022/04/15 00:22:47;;;;;;;17.75;11.80;;;;;;;9.31;89.06;101632.50;4947554;29;20047;-87
2022/04/15 00:25:14;;;;;;;18.73;10.75;;;;;;;9.30;88.69;101625.53;4954998;29;20059;-88
2022/04/15 00:27:41;;;;;;;22.88;12.88;;;;;;;9.30;88.11;101631.63;4953030;29;20062;-86
2022/04/15 00:30:11;;;;;;;20.23;12.05;;;;;;;9.26;88.09;101635.06;4949159;29;20044;-87
2022/04/15 00:32:48;;;;;;;15.25;10.20;;;;;;;9.22;88.30;101628.91;4953092;29;20326;-89
2022/04/15 00:35:14;;;;;;;14.82;11.02;;;;;;;9.22;88.35;101635.91;4945239;29;20051;-89
2022/04/15 00:37:42;;;;;;;15.27;11.35;;;;;;;9.19;88.08;101633.22;4932748;29;20367;-86
2022/04/15 00:40:10;;;;;;;16.77;10.35;;;;;;;9.17;88.45;101633.22;4921956;29;20047;-86
2022/04/15 00:42:45;;;;;;;14.93;11.27;;;;;;;9.09;88.29;101638.34;4937455;29;20071;-87
2022/04/15 00:45:11;;;;;;;17.95;11.32;;;;;;;9.03;88.77;101635.63;4957941;29;20057;-84
2022/04/15 00:47:51;;;;;;;15.57;10.57;;;;;;;9.02;89.02;101643.47;4924113;28;20435;-87
2022/04/15 00:50:32;;;;;;;13.23;10.20;;;;;;;8.97;88.97;101642.50;4952978;29;20508;-85
2022/04/15 00:53:10;;;;;;;17.58;11.05;;;;;;;8.96;89.10;101635.53;4949406;28;20446;-85
2022/04/15 00:55:40;;;;;;;12.80;9.80;;;;;;;8.96;89.45;101641.66;4936667;28;20158;-85
2022/04/15 00:58:08;;;;;;;12.30;9.95;;;;;;;8.95;89.23;101639.88;4919272;29;20039;-85
2022/04/15 01:00:38;;;;;;;13.43;9.25;;;;;;;8.96;89.36;101641.66;4921266;29;20074;-89
2022/04/15 01:03:07;;;;;;;10.15;8.90;;;;;;;8.99;89.35;101641.69;4948154;28;20394;-84
2022/04/15 01:05:38;;;;;;;15.48;8.57;;;;;;;8.96;88.64;101639.03;4938477;29;20050;-85
2022/04/15 01:08:08;;;;;;;11.20;7.53;;;;;;;8.97;88.87;101634.69;4935436;29;20127;-85
2022/04/15 01:10:41;;;;;;;9.35;7.18;;;;;;;8.96;88.38;101636.44;4951052;28;20051;-85
2022/04/15 01:13:08;;;;;;;8.55;7.32;;;;;;;8.97;88.51;101635.56;4934007;28;20106;-84
2022/04/15 01:15:37;;;;;;;10.80;7.60;;;;;;;8.97;88.00;101639.91;4963515;28;20114;-86
2022/04/15 01:18:03;;;;;;;9.77;7.03;;;;;;;8.93;88.14;101639.00;4924686;29;20055;-87
2022/04/15 01:20:34;;;;;;;8.93;6.18;;;;;;;8.91;88.71;101644.19;4935631;29;20043;-88
2022/04/15 01:23:12;;;;;;;7.63;6.47;;;;;;;8.90;88.54;101646.78;4917754;28;20058;-88
2022/04/15 01:25:41;;;;;;;8.05;5.88;;;;;;;8.90;88.01;101646.78;4950343;28;20062;-86
2022/04/15 01:28:09;;;;;;;9.50;6.70;;;;;;;8.84;87.87;101652.81;4931601;29;20113;-87
2022/04/15 01:30:36;;;;;;;8.95;7.45;;;;;;;8.82;87.89;101645.81;4952341;28;20085;-86
2022/04/15 01:33:04;;;;;;;10.00;6.13;;;;;;;8.79;87.50;101651.84;4933048;29;20046;-92
2022/04/15 01:35:36;;;;;;;10.73;5.82;;;;;;;8.77;87.72;101643.13;4917683;29;20118;-87
2022/04/15 01:38:10;;;;;;;7.80;6.57;;;;;;;8.80;87.34;101645.78;4934417;28;20477;-86
2022/04/15 01:40:38;;;;;;;;;;;;;;;8.79;86.83;101644.03;4931747;29;20495;-86
2022/04/15 01:43:08;;;;;;;7.38;5.88;;;;;;;8.76;86.18;101642.25;4946588;28;19922;-88
2022/04/15 01:45:42;;;;;;;8.75;5.82;;;;;;;8.76;86.46;101651.78;4935261;29;20059;-87
2022/04/15 01:48:09;;;;;;;10.95;6.28;;;;;;;8.73;86.12;101654.38;4936742;28;20081;-87
2022/04/15 01:50:36;;;;;;;7.65;6.15;;;;;;;8.72;86.39;101658.72;4932942;29;20166;-86
2022/04/15 01:53:03;;;;;;;6.95;5.20;;;;;;;8.72;86.14;101657.84;4943511;28;20082;-89
2022/04/15 01:55:34;;;;;;;6.55;5.18;;;;;;;8.72;85.47;101655.22;4930095;29;20138;-88
2022/04/15 01:58:00;;;;;;;8.93;5.35;;;;;;;8.67;84.53;101652.56;4944263;28;20058;-87
2022/04/15 02:00:27;;;;;;;6.38;4.93;;;;;;;8.62;84.47;101651.59;4948352;28;20047;-87
2022/04/15 02:02:55;;;;;;;10.15;4.63;;;;;;;8.59;84.47;101652.44;4928849;28;20047;-85
2022/04/15 02:05:22;;;;;;;8.85;4.72;;;;;;;8.56;83.89;101654.13;4931982;29;20110;-88
2022/04/15 02:07:49;;;;;;;5.15;4.35;;;;;;;8.56;84.00;101664.56;4933274;29;20051;-88
2022/04/15 02:10:15;;;;;;;10.82;4.43;;;;;;;8.54;83.82;101661.94;4921569;28;20612;-85
2022/04/15 02:12:42;;;;;;;5.70;5.00;;;;;;;8.54;83.83;101655.81;4926697;29;20141;-86
2022/04/15 02:15:09;;;;;;;5.40;4.90;;;;;;;8.53;83.85;101661.91;4921199;29;20098;-88
2022/04/15 02:17:36;;;;;;;7.50;4.60;;;;;;;8.54;84.30;101656.72;4937973;29;20047;-86
2022/04/15 02:20:04;;;;;;;7.28;5.30;;;;;;;8.55;84.06;101660.19;4917285;29;20039;-87
2022/04/15 02:22:31;;;;;;;6.32;4.57;;;;;;;8.53;84.08;101660.16;4935590;28;20095;-86
2022/04/15 02:25:00;;;;;;;6.43;4.80;;;;;;;8.54;84.33;101671.47;4942530;28;20039;-85
2022/04/15 02:27:26;;;;;;;6.95;5.03;;;;;;;8.55;84.00;101668.91;4914029;29;20043;-90
2022/04/15 02:29:53;;;;;;;5.55;5.05;;;;;;;8.52;84.06;101668.84;4922026;29;20055;-87
2022/04/15 02:32:21;;;;;;;5.70;4.95;;;;;;;8.52;84.17;101679.28;4937396;28;20529;-88
2022/04/15 02:34:48;;;;;;;6.93;4.97;;;;;;;8.52;84.26;101673.19;4941262;29;20140;-86
2022/04/15 02:37:15;;;;;;;5.30;4.80;;;;;;;8.49;83.97;101678.38;4941396;29;20082;-86
2022/04/15 02:39:42;;;;;;;4.82;4.32;;;;;;;8.47;84.23;101672.25;4926214;29;20513;-87
2022/04/15 02:42:18;;;;;;;5.22;4.55;;;;;;;8.48;84.03;101674.00;4930456;29;20145;-86
2022/04/15 02:44:47;;;;;;;8.00;4.32;;;;;;;8.47;83.88;101670.50;4935999;28;20070;-86
2022/04/15 02:47:15;;;;;;;4.75;4.38;;;;;;;8.47;83.96;101680.94;4928823;29;20063;-87
2022/04/15 02:49:42;;;;;;;9.13;4.78;;;;;;;8.46;83.89;101678.31;4928237;29;20097;-86
2022/04/15 02:52:11;;;;;;;6.75;4.18;;;;;;;8.43;83.88;101674.78;4918584;29;20142;-86
2022/04/15 02:54:39;;;;;;;9.57;4.55;;;;;;;8.46;84.10;101678.31;4941234;29;20051;-86
2022/04/15 02:57:07;;;;;;;5.68;3.28;;;;;;;8.46;84.12;101678.31;4938762;29;20047;-87
2022/04/15 02:59:36;;;;;;;6.60;4.03;;;;;;;8.45;84.15;101687.84;4939066;29;20058;-86
2022/04/15 03:02:04;;;;;;;6.70;4.53;;;;;;;8.44;83.74;101673.03;4936025;29;20067;-86
2022/04/15 03:04:32;;;;;;;5.57;4.25;;;;;;;8.42;84.19;101673.03;4950856;28;20114;-87
2022/04/15 03:06:59;;;;;;;6.90;4.47;;;;;;;8.43;83.91;101681.72;4904539;28;20509;-87
2022/04/15 03:09:27;;;;;;;5.30;3.85;;;;;;;8.40;83.92;101681.69;4922876;29;20059;-86
2022/04/15 03:11:55;;;;;;;5.55;3.85;;;;;;;8.39;83.74;101674.69;4933585;29;20051;-87
2022/04/15 03:14:23;;;;;;;4.07;3.67;;;;;;;8.38;83.73;101685.97;4920495;28;20409;-84
2022/04/15 03:16:50;;;;;;;3.50;3.17;;;;;;;8.35;83.93;101693.75;4920471;29;20043;-86
2022/04/15 03:19:16;;;;;;;9.27;4.10;;;;;;;8.34;83.76;101692.00;4933087;29;20051;-87
2022/04/15 03:21:45;;;;;;;7.10;5.65;;;;;;;8.35;83.79;101697.25;4930587;29;20130;-88
2022/04/15 03:24:12;;;;;;;7.40;3.95;;;;;;;8.33;83.35;101698.97;4913939;29;20047;-86
2022/04/15 03:29:22;;;;;;;5.57;4.97;;;;;;;8.27;83.68;101702.31;4955533;28;20087;-84
2022/04/15 03:31:49;;;;;;;7.05;5.68;;;;;;;8.28;83.37;101704.09;4950182;29;20522;-86
2022/04/15 03:34:16;;;;;;;7.30;5.95;;;;;;;8.29;83.95;101702.34;4916529;29;20055;-87
2022/04/15 03:36:45;;;;;;;8.57;5.88;;;;;;;8.30;83.41;101705.84;4935746;29;20057;-89
2022/04/15 03:39:12;;;;;;;11.07;6.25;;;;;;;8.30;83.26;101698.88;4949680;28;20057;-86
2022/04/15 03:41:39;;;;;;;7.88;6.13;;;;;;;8.27;83.08;101702.31;4932542;29;20042;-87
2022/04/15 03:44:07;;;;;;;7.65;6.60;;;;;;;8.22;83.26;101701.34;4952064;28;20047;-85
2022/04/15 03:46:34;;;;;;;9.35;6.20;;;;;;;8.20;83.48;101699.56;4916551;29;20057;-87
2022/04/15 03:49:02;;;;;;;9.07;7.45;;;;;;;8.20;83.45;101704.78;4934859;29;20055;-88
2022/04/15 03:51:28;;;;;;;13.90;9.13;;;;;;;8.17;83.50;101702.13;4912090;29;20043;-86
2022/04/15 03:53:55;;;;;;;9.98;7.30;;;;;;;8.15;83.20;101709.94;4924898;29;20047;-90
2022/04/15 03:56:22;;;;;;;9.82;7.93;;;;;;;8.18;83.39;101703.91;4932633;29;20062;-89
2022/04/15 03:58:50;;;;;;;10.48;7.50;;;;;;;8.14;83.15;101700.34;4921838;29;20043;-87
2022/04/15 04:01:18;;;;;;;9.20;6.65;;;;;;;8.14;83.00;101702.09;4938335;29;20055;-87
2022/04/15 04:03:45;;;;;;;9.98;7.05;;;;;;;8.10;83.38;101708.97;4927791;29;20058;-86
2022/04/15 04:06:12;;;;;;;7.00;5.85;;;;;;;8.08;83.76;101718.50;4918017;29;20059;-87
2022/04/15 04:08:40;;;;;;;8.05;5.82;;;;;;;8.05;83.87;101719.31;4945916;28;20051;-87
2022/04/15 04:11:06;;;;;;;8.40;5.53;;;;;;;8.01;84.34;101725.31;4926594;29;20051;-88
2022/04/15 04:13:34;;;;;;;6.47;5.18;;;;;;;7.98;84.89;101716.56;4896918;29;20043;-84
2022/04/15 04:16:01;;;;;;;5.10;4.60;;;;;;;7.95;85.39;101712.16;4942761;29;20047;-87
2022/04/15 04:18:31;;;;;;;6.60;4.97;;;;;;;7.92;85.53;101720.81;4938519;29;20055;-85
2022/04/15 04:20:58;;;;;;;7.13;4.82;;;;;;;7.90;85.70;101709.50;4919216;29;20075;-86
2022/04/15 04:23:25;;;;;;;6.03;4.32;;;;;;;7.89;85.95;101717.28;4919207;29;20058;-85
2022/04/15 04:25:55;;;;;;;6.20;4.43;;;;;;;7.88;85.81;101720.75;4936337;28;20051;-86
2022/04/15 04:28:21;;;;;;;5.80;3.70;;;;;;;7.88;86.45;101726.81;4922302;29;20474;-87
2022/04/15 04:30:49;;;;;;;5.88;3.92;;;;;;;7.87;86.05;101722.44;4949710;29;20047;-85
2022/04/15 04:33:15;;;;;;;6.18;3.88;;;;;;;7.87;86.43;101725.06;4953867;29;20486;-85
2022/04/15 04:35:42;;;;;;;4.95;4.55;;;;;;;7.86;86.77;101731.13;4955796;28;20046;-86
2022/04/15 04:38:09;;;;;;;4.93;4.00;;;;;;;7.87;87.08;101732.00;4941612;29;20051;-86
2022/04/15 04:40:36;;;;;;;4.05;3.60;;;;;;;7.86;87.36;101731.13;4931080;29;20070;-87
2022/04/15 04:43:08;;;;;;;5.85;4.60;;;;;;;7.87;87.37;101737.22;4930485;28;20157;-87
2022/04/15 04:45:35;;;;;;;4.07;3.78;;;;;;;7.84;87.58;101737.19;4924830;29;20043;-86
2022/04/15 04:48:06;;;;;;;4.30;3.90;;;;;;;7.84;87.38;101745.00;4957954;29;20058;-89
2022/04/15 04:50:35;;;;;;;5.95;4.82;;;;;;;7.84;87.73;101753.69;4938508;29;20074;-85
2022/04/15 04:53:01;;;;;;;6.65;4.40;;;;;;;7.86;88.31;101756.31;4935362;28;20047;-83
2022/04/15 04:55:28;;;;;;;5.10;4.28;;;;;;;7.86;88.32;101753.69;4919763;29;20051;-85
2022/04/15 04:57:55;;;;;;;3.97;3.70;;;;;;;7.86;88.09;101761.53;4936480;28;20043;-87
2022/04/15 05:00:22;;;;;;;5.63;4.53;;;;;;;7.87;88.56;101760.69;4936453;29;20142;-85
2022/04/15 05:02:50;;;;;;;4.65;4.25;;;;;;;7.86;88.35;101762.44;4938560;28;20070;-87
2022/04/15 05:05:16;;;;;;;6.10;4.22;;;;;;;7.86;88.34;101759.81;4932282;29;20059;-86
2022/04/15 05:07:43;;;;;;;6.75;5.22;;;;;;;7.88;88.68;101765.06;4933105;29;20052;-86
2022/04/15 05:10:10;;;;;;;5.47;4.97;;;;;;;7.89;89.13;101774.66;4930502;28;20107;-87
2022/04/15 05:12:39;;;;;;;6.63;4.70;;;;;;;7.90;89.15;101766.84;4916088;29;20050;-86
2022/04/15 05:15:11;;;;;;;5.53;4.38;;;;;;;7.91;89.21;101768.63;4936675;29;20050;-88
2022/04/15 05:17:41;;;;;;;7.75;5.70;;;;;;;7.91;89.77;101768.63;4951320;28;20058;-85
2022/04/15 05:20:13;;;;;;;6.47;4.95;;;;;;;7.89;89.84;101780.72;4933556;28;20132;-85
2022/04/15 05:22:40;;;;;;;8.30;5.00;;;;;;;7.89;90.50;101783.34;4917420;28;20561;-88
2022/04/15 05:25:10;;;;;;;6.45;5.15;;;;;;;7.88;90.66;101781.56;4936231;29;20245;-84
2022/04/15 05:27:38;;;;;;;8.57;4.82;;;;;;;7.89;90.65;101782.47;4933422;29;20057;-87
2022/04/15 05:30:06;;;;;;;7.35;5.88;;;;;;;7.91;91.24;101792.06;4938257;29;20759;-88
2022/04/15 05:32:38;;;;;;;6.53;5.32;;;;;;;7.91;91.89;101792.06;4923334;29;20146;-86
2022/04/15 05:35:11;;;;;;;14.02;5.63;;;;;;;7.91;92.98;101802.50;4933981;29;20134;-87
2022/04/15 05:37:55;;;;;;;7.60;6.30;;;;;;;7.84;94.18;101804.94;4931466;29;20066;-87
2022/04/15 05:40:23;;;;;;;9.27;7.32;;;;;;;7.75;96.08;101813.44;4952847;28;20886;-86
2022/04/15 05:42:50;;;;;;;7.65;5.97;;;;;;;7.70;97.02;101804.66;4935850;29;20047;-86
2022/04/15 05:45:21;;;;;;;10.18;7.00;;;;;;;7.65;97.32;101809.75;4935528;28;20047;-87
2022/04/15 05:47:48;;;;;;;13.82;7.32;;;;;;;7.61;98.48;101813.13;4903133;29;20392;-87
2022/04/15 05:50:18;;;;;;;10.90;8.05;;;;;;;7.56;98.11;101815.66;4917478;28;20059;-86
2022/04/15 05:52:45;;;;;;;10.45;7.80;;;;;;;7.51;98.54;101816.38;4915728;28;20130;-86
2022/04/15 05:55:12;;;;;;;13.18;7.68;;;;;;;7.52;98.89;101820.75;4925833;29;20061;-85
2022/04/15 06:00:26;;;;;;;10.68;8.18;;;;;;;7.56;98.03;101817.38;4927939;29;20043;-85
2022/04/15 06:02:53;;;;;;;11.43;7.55;;;;;;;7.62;96.84;101820.13;4920171;28;20094;-86
2022/04/15 06:05:22;;;;;;;8.93;6.93;;;;;;;7.69;95.92;101822.03;4935225;29;20047;-85
2022/04/15 06:07:52;;;;;;;10.40;7.40;;;;;;;7.77;94.29;101822.19;4937791;29;20051;-88
2022/04/15 06:10:23;;;;;;;8.25;6.28;;;;;;;7.85;92.85;101818.00;4932706;28;20062;-86
2022/04/15 06:13:05;;;;;;;8.40;6.40;;;;;;;7.93;92.22;101819.03;4932224;29;20406;-86
2022/04/15 06:18:14;;;;;;;7.68;5.93;;;;;;;8.15;90.45;101834.25;4919195;28;20406;-88
2022/04/15 06:20:52;;;;;;;6.18;5.40;;;;;;;8.19;89.26;101836.09;4945675;28;20063;-89
2022/04/15 06:23:23;;;;;;;6.43;5.60;;;;;;;8.24;88.66;101853.59;4934964;28;20102;-86
2022/04/15 06:25:51;;;;;;;6.72;4.95;;;;;;;8.32;87.80;101856.34;4951965;28;20142;-84
2022/04/15 06:28:21;;;;;;;7.93;5.75;;;;;;;8.41;87.71;101850.44;4920417;29;20486;-87
2022/04/15 06:34:03;;;;;;;7.55;5.15;;;;;;;8.54;85.30;101851.56;4951772;29;20054;-84
2022/04/15 06:39:42;;;;;;;5.80;5.22;;;;;;;8.73;84.01;101864.09;4934779;29;20417;-85
2022/04/15 06:42:09;;;;;;;6.57;5.20;;;;;;;8.83;83.50;101864.28;4932946;29;20055;-85
2022/04/15 06:44:39;;;;;;;5.95;3.78;;;;;;;8.94;82.89;101863.63;4932237;29;20043;-86
2022/04/15 06:47:06;;;;;;;5.32;4.43;;;;;;;9.02;81.92;101862.84;4929107;29;20109;-84
2022/04/15 06:49:32;;;;;;;5.15;4.57;;;;;;;9.06;82.06;101867.25;4930660;28;20498;-84
2022/04/15 06:51:59;;;;;;;5.05;4.32;;;;;;;9.10;80.32;101867.34;4930933;28;20114;-86
2022/04/15 06:54:27;;;;;;;6.57;4.35;;;;;;;9.12;80.51;101864.75;4918680;29;20031;-84
2022/04/15 06:56:54;;;;;;;4.25;3.85;;;;;;;9.20;80.14;101870.13;4915632;29;20624;-86
2022/04/15 06:59:20;;;;;;;5.45;3.90;;;;;;;9.26;79.76;101865.88;4933352;29;20714;-85
2022/04/15 07:02:01;;;;;;;11.25;5.40;;;;;;;9.29;78.84;101869.41;4933552;29;20089;-86
2022/04/15 07:04:32;;;;;;;4.20;3.45;;;;;;;9.32;77.99;101869.44;4933855;29;20062;-87
2022/04/15 07:06:59;;;;;;;3.60;3.30;;;;;;;9.35;78.58;101875.59;4916510;29;20087;-87
2022/04/15 07:09:26;;;;;;;4.30;3.90;;;;;;;9.44;77.73;101877.47;4931729;28;20434;-85
2022/04/15 07:11:53;;;;;;;5.38;4.30;;;;;;;9.49;77.35;101867.97;4917083;29;20154;-87
2022/04/15 07:14:25;;;;;;;3.72;3.42;;;;;;;9.55;77.00;101868.03;4904944;28;20055;-85
2022/04/15 07:16:53;;;;;;;3.83;3.35;;;;;;;9.62;76.63;101865.53;4932227;28;20490;-87
2022/04/15 07:19:21;;;;;;;3.47;3.17;;;;;;;9.67;76.00;101863.84;4939089;29;20043;-89
2022/04/15 07:21:49;;;;;;;4.80;3.55;;;;;;;9.80;75.51;101859.69;4946690;28;20090;-86
2022/04/15 07:24:20;;;;;;;3.97;3.33;;;;;;;9.91;74.66;101852.88;4928985;29;20047;-87
2022/04/15 07:26:47;;;;;;;3.72;3.28;;;;;;;9.98;74.28;101851.22;4930300;29;20142;-87
2022/04/15 07:29:13;;;;;;;5.38;3.45;;;;;;;10.19;73.68;101864.53;4919124;28;20059;-88
2022/04/15 07:31:42;;;;;;;3.35;3.05;;;;;;;10.36;73.05;101870.00;4921840;28;20461;-85
2022/04/15 07:34:09;;;;;;;3.13;2.90;;;;;;;10.46;72.35;101870.13;4929511;28;20114;-87
2022/04/15 07:36:48;;;;;;;3.20;2.85;;;;;;;10.51;71.78;101871.94;4931585;29;20510;-86
2022/04/15 07:39:15;;;;;;;7.00;3.45;;;;;;;10.57;71.20;101873.72;4906251;29;20083;-85
2022/04/15 07:41:45;;;;;;;4.30;3.30;;;;;;;10.70;71.04;101877.34;4918938;29;20053;-85
2022/04/15 07:44:13;;;;;;;5.18;2.88;;;;;;;10.98;70.51;101869.78;4930718;29;20094;-88
2022/04/15 07:46:42;;;;;;;4.93;2.95;;;;;;;11.16;69.58;101871.66;4934444;29;20590;-89
2022/04/15 07:49:09;;;;;;;3.33;2.90;;;;;;;11.40;68.77;101868.34;4915426;29;20044;-86
2022/04/15 07:54:07;;;;;;;3.60;3.30;;;;;;;11.70;67.42;101875.53;4993397;23;20084;-87
2022/04/15 07:56:36;;;;;;;4.47;3.90;;;;;;;11.50;67.15;101880.66;4947991;28;20054;-86
2022/04/15 07:59:04;;;;;;;4.07;3.58;;;;;;;11.25;68.22;101885.72;4924910;28;20047;-86
2022/04/15 08:01:34;;;;;;;4.50;3.72;;;;;;;11.13;69.19;101882.97;4954606;28;20043;-86
2022/04/15 08:04:01;;;;;;;4.15;3.75;;;;;;;11.16;69.45;101892.63;4936821;28;20914;-86
2022/04/15 08:06:29;;;;;;;5.18;3.97;;;;;;;11.31;68.50;101889.25;4951370;28;20054;-87
2022/04/15 08:08:58;;;;;;;5.30;4.80;;;;;;;11.43;67.96;101894.59;4936325;28;20046;-87
2022/04/15 08:11:26;;;;;;;6.45;4.53;;;;;;;11.78;67.34;101896.56;4952781;28;20719;-85
2022/04/15 08:13:54;;;;;;;5.50;4.65;;;;;;;12.64;65.47;101897.84;4952822;28;20051;-87
2022/04/15 08:16:29;;;;;;;6.55;4.53;;;;;;;12.99;63.92;101908.41;4955367;28;20055;-86
2022/04/15 08:18:57;;;;;;;5.03;4.53;;;;;;;12.88;63.18;101913.66;4952568;28;20082;-87
2022/04/15 08:21:26;;;;;;;5.35;4.85;;;;;;;12.66;63.83;101918.00;4951619;28;20057;-87
2022/04/15 08:23:53;;;;;;;8.80;5.63;;;;;;;12.40;63.81;101916.16;4935317;28;20047;-84
2022/04/15 08:26:19;;;;;;;7.93;5.43;;;;;;;12.09;64.99;101915.16;4952338;28;20051;-89
2022/04/15 08:28:46;;;;;;;6.47;5.38;;;;;;;11.91;65.24;101918.50;4956543;28;20053;-84
2022/04/15 08:31:13;;;;;;;6.63;5.03;;;;;;;11.73;66.36;101929.75;4943788;28;20038;-88
2022/04/15 08:33:40;;;;;;;5.68;5.15;;;;;;;11.65;66.56;101926.22;4933836;28;20053;-86
2022/04/15 08:36:07;;;;;;;7.13;6.10;;;;;;;11.58;66.66;101927.94;4938689;28;20046;-87
2022/04/15 08:38:34;;;;;;;10.05;6.90;;;;;;;11.46;67.00;101927.81;4951889;28;20051;-90
2022/04/15 08:41:01;;;;;;;9.40;7.03;;;;;;;11.38;67.68;101935.63;4937455;28;20141;-89
2022/04/15 08:43:29;;;;;;;8.50;6.55;;;;;;;11.35;67.93;101932.97;4934790;28;20042;-87
2022/04/15 08:45:56;;;;;;;6.68;6.07;;;;;;;11.30;68.00;101940.78;4954721;28;20046;-89
2022/04/15 08:48:25;;;;;;;6.85;6.20;;;;;;;11.27;68.06;101942.53;4966649;28;20104;-92
2022/04/15 08:50:56;;;;;;;6.28;5.75;;;;;;;11.20;68.44;101945.09;4975789;28;20061;-92
2022/04/15 08:53:24;;;;;;;9.95;7.80;;;;;;;11.17;68.95;101955.56;4999264;28;20134;-86
2022/04/15 08:55:54;;;;;;;8.90;7.55;;;;;;;11.18;68.86;101946.81;4993037;28;20043;-87
2022/04/15 08:58:21;;;;;;;9.68;7.30;;;;;;;11.28;68.90;101955.66;4990903;28;20049;-84
2022/04/15 09:00:50;;;;;;;8.05;7.07;;;;;;;11.44;68.43;101955.78;5000929;28;20089;-87
2022/04/15 09:03:18;;;;;;;8.20;6.95;;;;;;;11.55;68.33;101955.00;4979835;28;20131;-86
2022/04/15 09:05:50;;;;;;;9.93;7.45;;;;;;;11.67;67.75;101945.47;4963046;28;20052;-82
2022/04/15 09:08:17;;;;;;;8.00;7.00;;;;;;;11.71;67.21;101955.13;4962132;28;20042;-89
2022/04/15 09:10:44;;;;;;;8.25;6.85;;;;;;;11.70;67.30;101959.47;4974093;28;20129;-83
2022/04/15 09:13:28;;;;;;;8.20;7.30;;;;;;;11.65;67.48;101961.19;4965897;28;20047;-84
2022/04/15 09:15:55;;;;;;;9.27;7.72;;;;;;;11.69;67.40;101959.47;4956625;28;20061;-87
2022/04/15 09:18:36;;;;;;;7.97;5.78;;;;;;;11.74;66.97;101976.13;4961457;28;20062;-89
2022/04/15 09:21:28;;;;;;;6.30;5.70;;;;;;;11.81;66.33;101969.16;4985684;28;20058;-86
2022/04/15 09:23:59;;;;;;;7.28;6.57;;;;;;;11.94;66.28;101981.50;4953358;28;20046;-86
2022/04/15 09:26:27;;;;;;;6.88;6.07;;;;;;;12.03;65.73;101968.50;4967279;28;20053;-85
2022/04/15 09:28:55;;;;;;;11.65;6.40;;;;;;;12.23;65.44;101984.34;4972142;28;20046;-87
2022/04/15 09:31:25;;;;;;;8.82;6.75;;;;;;;12.40;64.60;101978.31;4986389;28;20105;-86
2022/04/15 09:34:01;;;;;;;9.60;6.03;;;;;;;12.60;64.00;101972.28;4972686;28;20637;-86
2022/04/15 09:36:35;;;;;;;7.95;5.65;;;;;;;12.76;62.99;101981.06;4967443;28;20366;-85
2022/04/15 09:39:14;;;;;;;9.05;6.65;;;;;;;12.91;62.99;101981.13;4984860;28;20053;-86
2022/04/15 09:41:54;;;;;;;8.13;5.65;;;;;;;13.07;62.61;101982.94;4967406;28;20062;-85
2022/04/15 09:44:31;;;;;;;7.80;5.10;;;;;;;13.71;61.20;101982.97;4958356;28;20053;-86
2022/04/15 09:47:04;;;;;;;8.57;5.45;;;;;;;14.23;58.90;101976.75;4973629;28;20137;-86
2022/04/15 09:49:35;;;;;;;6.70;5.15;;;;;;;14.46;57.63;101983.72;4974102;28;20056;-86
2022/04/15 09:52:03;;;;;;;6.15;5.55;;;;;;;14.46;57.49;101987.22;4973434;28;20181;-87
2022/04/15 09:54:31;;;;;;;6.95;5.38;;;;;;;14.54;57.46;101985.41;4986674;28;20053;-86
2022/04/15 09:57:00;;;;;;;7.18;6.07;;;;;;;14.59;55.50;101980.13;4969706;28;20573;-85
2022/04/15 09:59:29;;;;;;;7.47;4.97;;;;;;;14.44;56.78;101988.97;4956409;28;20050;-88
2022/04/15 10:01:59;;;;;;;10.60;5.97;;;;;;;14.27;57.38;101988.16;4989821;28;20046;-86
2022/04/15 10:04:28;;;;;;;6.75;5.28;;;;;;;14.25;57.23;101989.91;4949791;28;20058;-86
2022/04/15 10:07:00;;;;;;;6.32;5.72;;;;;;;14.37;56.81;101998.66;4981158;28;20410;-89
2022/04/15 10:09:27;;;;;;;6.22;5.28;;;;;;;14.49;56.71;101992.47;4956357;28;20483;-83
2022/04/15 10:11:58;;;;;;;8.30;5.10;;;;;;;14.71;55.79;101997.69;4987065;28;20051;-85
2022/04/15 10:14:33;;;;;;;6.32;5.05;;;;;;;14.55;56.14;102008.25;4953819;28;20144;-83
2022/04/15 10:17:00;;;;;;;5.82;5.00;;;;;;;14.11;57.26;102018.94;4968217;28;20097;-86
2022/04/15 10:19:27;;;;;;;5.20;4.70;;;;;;;13.73;58.72;102024.22;4971515;28;20050;-87
2022/04/15 10:21:55;;;;;;;5.25;4.00;;;;;;;13.52;59.50;102011.94;4969840;28;20045;-86
2022/04/15 10:24:26;;;;;;;6.78;4.75;;;;;;;13.33;60.08;102023.28;4970032;28;20439;-88
2022/04/15 10:27:00;;;;;;;5.30;4.55;;;;;;;13.11;60.35;102023.22;4971604;28;20455;-87
2022/04/15 10:29:27;;;;;;;5.28;4.65;;;;;;;12.93;61.05;102023.19;4969630;28;20050;-83
2022/04/15 10:31:54;;;;;;;5.82;4.80;;;;;;;12.84;61.75;102029.28;4974317;28;20077;-87
2022/04/15 10:34:23;;;;;;;5.63;4.82;;;;;;;12.81;61.48;102029.28;4980963;28;20154;-86
2022/04/15 10:36:51;;;;;;;8.07;5.43;;;;;;;12.74;61.67;102025.75;4985050;28;20089;-85
2022/04/15 10:39:21;;;;;;;7.40;5.03;;;;;;;12.70;62.11;102031.88;4972210;28;20248;-85
2022/04/15 10:41:50;;;;;;;10.20;5.10;;;;;;;12.65;61.74;102031.81;4956764;28;20066;-86
2022/04/15 10:56:11;;;;;;;7.95;5.18;;;;;;;12.74;61.83;102039.75;4940519;29;20067;-85
2022/04/15 11:01:54;;;;;;;11.35;6.15;;;;;;;12.38;63.70;102041.34;4914084;29;20047;-88
2022/04/15 11:04:26;;;;;;;8.95;6.28;;;;;;;12.38;63.69;102048.31;4935365;28;20074;-85
2022/04/15 11:06:59;;;;;;;8.75;5.60;;;;;;;12.44;63.80;102036.97;4895086;29;20056;-87
2022/04/15 11:09:28;;;;;;;9.27;6.57;;;;;;;12.50;63.65;102037.91;4920343;29;20111;-88
2022/04/15 11:12:06;;;;;;;7.65;6.03;;;;;;;12.64;63.06;102026.56;4916826;29;20052;-89
2022/04/15 11:14:39;;;;;;;11.13;7.45;;;;;;;12.81;63.28;102019.63;4917638;29;20040;-86
2022/04/15 11:17:09;;;;;;;9.25;6.63;;;;;;;12.89;63.04;102023.19;4909688;29;20067;-84
2022/04/15 11:19:37;;;;;;;13.10;8.82;;;;;;;13.03;62.81;102014.44;4925033;29;20392;-88
2022/04/15 11:22:05;;;;;;;13.18;8.80;;;;;;;13.23;62.27;102017.09;4899821;29;20044;-86
2022/04/15 11:24:41;;;;;;;14.18;10.00;;;;;;;13.85;61.57;102010.16;4911831;29;20052;-88
2022/04/15 11:27:10;;;;;;;16.88;9.82;;;;;;;14.97;58.26;102009.88;4929078;29;20115;-86
2022/04/15 11:29:39;;;;;;;15.10;11.35;;;;;;;15.88;55.05;102007.44;4917038;29;20043;-88
2022/04/15 11:32:10;;;;;;;13.48;9.10;;;;;;;16.54;53.35;102018.19;4907787;29;20103;-85
2022/04/15 11:34:38;;;;;;;13.13;9.70;;;;;;;17.51;50.66;102026.59;4916779;29;20084;-85
2022/04/15 11:39:55;;;;;;;14.25;9.82;;;;;;;17.09;51.12;102024.59;4929722;29;20063;-89
2022/04/15 11:42:24;;;;;;;14.40;8.32;;;;;;;16.33;53.18;102028.13;4929393;29;20047;-86
2022/04/15 11:44:51;;;;;;;15.45;7.65;;;;;;;15.92;54.53;102041.75;4925756;29;20060;-86
2022/04/15 11:47:20;;;;;;;11.27;8.27;;;;;;;15.42;55.21;102036.81;4919548;29;20044;-82
2022/04/15 11:49:51;;;;;;;11.43;8.02;;;;;;;14.82;57.09;102047.72;4903658;29;20050;-85
2022/04/15 11:52:35;;;;;;;12.70;9.07;;;;;;;14.50;57.82;102053.97;4899654;29;20044;-87
2022/04/15 11:55:02;;;;;;;8.63;7.50;;;;;;;14.27;58.77;102054.00;4915134;29;20067;-86
2022/04/15 11:57:30;;;;;;;14.18;8.25;;;;;;;13.83;60.01;102055.78;4899274;29;20047;-84
2022/04/15 12:00:00;;;;;;;10.60;8.25;;;;;;;13.36;61.25;102062.72;4899820;29;20055;-86
2022/04/15 12:02:36;;;;;;;12.90;7.55;;;;;;;12.98;62.62;102063.50;4897796;29;20047;-89
2022/04/15 12:05:10;;;;;;;11.50;7.68;;;;;;;12.68;63.55;102065.13;4889425;29;20108;-85
2022/04/15 12:07:39;;;;;;;12.30;8.13;;;;;;;12.58;64.23;102072.09;4898721;29;20127;-89
2022/04/15 12:10:30;;;;;;;11.68;7.43;;;;;;;12.49;65.02;102077.25;4916224;29;20111;-86
2022/04/15 12:13:00;;;;;;;8.77;7.85;;;;;;;12.46;65.02;102074.63;4907739;29;20048;-87